createdAt,value
2022-12-25T00:02:27.084Z,100629.96
2022-12-25T00:04:57.838Z,100635.63
2022-12-25T00:07:28.707Z,100635.09
2022-12-25T00:09:59.547Z,100623.92
2022-12-25T00:12:30.175Z,100621.83
2022-12-25T00:15:00.917Z,100621.27
2022-12-25T00:17:31.679Z,100616.27
2022-12-25T00:20:02.471Z,100614.73
2022-12-25T00:22:33.528Z,100614.33
2022-12-25T00:25:04.382Z,100621.64
2022-12-25T00:27:37.725Z,100628.06
2022-12-25T00:30:10.818Z,100628.60
2022-12-25T00:32:42.166Z,100627.88
2022-12-25T00:35:13.310Z,100619.52
2022-12-25T00:37:44.287Z,100623.56
2022-12-25T00:40:16.449Z,100624.20
2022-12-25T00:42:49.685Z,100625.04
2022-12-25T00:45:20.470Z,100631.38
2022-12-25T00:47:51.345Z,100625.92
2022-12-25T00:50:22.235Z,100623.95
2022-12-25T00:52:52.948Z,100623.30
2022-12-25T00:55:23.691Z,100617.94
2022-12-25T00:57:54.523Z,100618.28
2022-12-25T01:00:25.388Z,100609.52
2022-12-25T01:02:56.101Z,100607.77
2022-12-25T01:05:27.381Z,100606.25
2022-12-25T01:07:58.122Z,100611.70
2022-12-25T01:10:28.781Z,100612.29
2022-12-25T01:12:59.511Z,100621.73
2022-12-25T01:15:30.085Z,100629.68
2022-12-25T01:18:07.313Z,100624.31
2022-12-25T01:20:38.681Z,100623.27
2022-12-25T01:23:10.070Z,100619.52
2022-12-25T01:25:40.688Z,100620.08
2022-12-25T01:28:11.360Z,100620.14
2022-12-25T01:30:48.542Z,100616.27
2022-12-25T01:33:19.394Z,100626.06
2022-12-25T01:35:50.248Z,100627.21
2022-12-25T01:38:22.285Z,100624.89
2022-12-25T01:40:53.034Z,100641.34
2022-12-25T01:43:29.080Z,100649.13
2022-12-25T01:46:00.442Z,100652.05
2022-12-25T01:48:35.052Z,100658.04
2022-12-25T01:51:13.773Z,100658.54
2022-12-25T01:53:44.518Z,100660.66
2022-12-25T01:56:15.164Z,100663.58
2022-12-25T01:58:45.996Z,100663.67
2022-12-25T02:01:16.920Z,100663.63
2022-12-25T02:03:47.831Z,100661.78
2022-12-25T02:06:18.680Z,100659.03
2022-12-25T02:08:50.531Z,100666.02
2022-12-25T02:11:35.095Z,100665.48
2022-12-25T02:14:06.208Z,100670.15
2022-12-25T02:16:58.254Z,100666.10
2022-12-25T02:19:47.127Z,100668.49
2022-12-25T02:22:29.642Z,100671.49
2022-12-25T02:25:12.232Z,100671.98
2022-12-25T02:28:06.738Z,100676.93
2022-12-25T02:30:41.950Z,100676.60
2022-12-25T02:33:35.139Z,100676.52
2022-12-25T02:36:11.434Z,100675.82
2022-12-25T02:38:59.671Z,100681.94
2022-12-25T02:41:35.559Z,100672.67
2022-12-25T02:44:30.409Z,100672.52
2022-12-25T02:47:19.909Z,100673.08
2022-12-25T02:50:11.009Z,100678.90
2022-12-25T02:53:01.003Z,100683.56
2022-12-25T02:55:57.385Z,100688.86
2022-12-25T02:58:47.254Z,100693.36
2022-12-25T03:01:38.802Z,100693.73
2022-12-25T03:04:31.246Z,100698.10
2022-12-25T03:07:08.960Z,100693.70
2022-12-25T03:10:00.244Z,100689.78
2022-12-25T03:12:38.641Z,100685.02
2022-12-25T03:15:30.572Z,100680.94
2022-12-25T03:18:06.355Z,100680.39
2022-12-25T03:20:55.992Z,100677.29
2022-12-25T03:23:48.328Z,100681.23
2022-12-25T03:26:36.656Z,100673.59
2022-12-25T03:29:07.543Z,100676.54
2022-12-25T03:31:48.117Z,100679.55
2022-12-25T03:34:49.791Z,100678.84
2022-12-25T03:37:52.465Z,100678.85
2022-12-25T03:41:04.896Z,100684.84
2022-12-25T03:44:05.510Z,100685.23
2022-12-25T03:47:02.322Z,100691.33
2022-12-25T03:49:57.560Z,100694.73
2022-12-25T03:52:49.091Z,100697.29
2022-12-25T03:55:54.565Z,100702.02
2022-12-25T03:58:45.742Z,100699.85
2022-12-25T04:01:32.646Z,100700.27
2022-12-25T04:04:21.261Z,100720.34
2022-12-25T04:07:09.511Z,100730.04
2022-12-25T04:09:58.051Z,100734.41
2022-12-25T04:12:46.091Z,100728.45
2022-12-25T04:15:34.908Z,100730.70
2022-12-25T04:18:23.986Z,100733.33
2022-12-25T04:21:12.524Z,100736.90
2022-12-25T04:24:00.925Z,100731.75
2022-12-25T04:26:49.597Z,100725.64
2022-12-25T04:29:38.111Z,100725.44
2022-12-25T04:32:26.516Z,100727.59
2022-12-25T04:35:14.746Z,100722.32
2022-12-25T04:37:45.598Z,100719.73
2022-12-25T04:40:16.362Z,100717.88
2022-12-25T04:42:47.211Z,100717.83
2022-12-25T04:45:17.971Z,100717.77
2022-12-25T04:47:48.696Z,100719.95
2022-12-25T04:50:19.524Z,100716.42
2022-12-25T04:52:50.246Z,100719.43
2022-12-25T04:55:21.329Z,100729.02
2022-12-25T04:57:52.102Z,100727.76
2022-12-25T05:00:23.462Z,100731.52
2022-12-25T05:02:54.391Z,100738.19
2022-12-25T05:05:25.292Z,100740.01
2022-12-25T05:07:56.006Z,100741.35
2022-12-25T05:10:26.931Z,100740.86
2022-12-25T05:12:57.665Z,100743.67
2022-12-25T05:15:28.688Z,100739.33
2022-12-25T05:17:59.452Z,100738.27
2022-12-25T05:20:33.430Z,100740.00
2022-12-25T05:23:10.286Z,100740.66
2022-12-25T05:25:42.761Z,100740.25
2022-12-25T05:28:13.641Z,100733.85
2022-12-25T05:30:44.501Z,100727.88
2022-12-25T05:33:15.208Z,100730.46
2022-12-25T05:35:45.943Z,100732.82
2022-12-25T05:38:16.638Z,100733.61
2022-12-25T05:40:47.423Z,100737.00
2022-12-25T05:43:19.442Z,100747.38
2022-12-25T05:45:50.086Z,100740.71
2022-12-25T05:48:20.879Z,100746.52
2022-12-25T05:50:51.669Z,100745.18
2022-12-25T05:53:22.409Z,100749.29
2022-12-25T05:55:53.718Z,100744.59
2022-12-25T05:58:24.400Z,100739.83
2022-12-25T06:00:55.160Z,100740.70
2022-12-25T06:03:26.218Z,100742.45
2022-12-25T06:05:57.502Z,100742.08
2022-12-25T06:08:28.186Z,100739.30
2022-12-25T06:10:58.964Z,100736.19
2022-12-25T06:13:29.563Z,100733.67
2022-12-25T06:16:00.385Z,100724.11
2022-12-25T06:18:31.238Z,100719.56
2022-12-25T06:21:01.975Z,100716.38
2022-12-25T06:23:32.678Z,100736.12
2022-12-25T06:26:06.298Z,100735.08
2022-12-25T06:28:37.312Z,100733.91
2022-12-25T06:31:11.092Z,100726.86
2022-12-25T06:33:42.000Z,100719.33
2022-12-25T06:36:15.952Z,100711.85
2022-12-25T06:38:47.459Z,100704.39
2022-12-25T06:41:20.554Z,100704.77
2022-12-25T06:43:53.163Z,100717.89
2022-12-25T06:46:25.034Z,100719.13
2022-12-25T06:48:56.297Z,100727.73
2022-12-25T06:51:29.230Z,100732.84
2022-12-25T06:54:03.664Z,100741.70
2022-12-25T06:56:35.224Z,100740.02
2022-12-25T06:59:07.520Z,100743.05
2022-12-25T07:01:40.811Z,100741.13
2022-12-25T07:04:16.892Z,100748.40
2022-12-25T07:06:47.791Z,100751.02
2022-12-25T07:09:18.823Z,100737.91
2022-12-25T07:11:49.481Z,100738.96
2022-12-25T07:14:24.148Z,100733.55
2022-12-25T07:16:55.592Z,100736.25
2022-12-25T07:19:26.486Z,100738.92
2022-12-25T07:21:57.733Z,100736.01
2022-12-25T07:24:28.479Z,100739.48
2022-12-25T07:26:59.116Z,100740.14
2022-12-25T07:29:30.015Z,100759.91
2022-12-25T07:32:01.238Z,100758.67
2022-12-25T07:34:31.958Z,100758.08
2022-12-25T07:37:02.895Z,100759.55
2022-12-25T07:39:34.540Z,100763.11
2022-12-25T07:42:05.242Z,100765.42
2022-12-25T07:44:36.319Z,100768.44
2022-12-25T07:47:07.022Z,100765.73
2022-12-25T07:49:38.802Z,100761.45
2022-12-25T07:52:09.465Z,100766.38
2022-12-25T07:54:40.276Z,100767.68
2022-12-25T07:57:11.554Z,100768.55
2022-12-25T07:59:42.452Z,100773.89
2022-12-25T08:02:14.325Z,100772.87
2022-12-25T08:04:45.886Z,100778.33
2022-12-25T08:07:16.959Z,100774.39
2022-12-25T08:09:47.885Z,100779.77
2022-12-25T08:12:18.734Z,100781.65
2022-12-25T08:14:49.508Z,100785.04
2022-12-25T08:17:20.237Z,100792.78
2022-12-25T08:19:51.110Z,100784.63
2022-12-25T08:22:22.187Z,100780.89
2022-12-25T08:24:53.009Z,100772.94
2022-12-25T08:27:23.712Z,100774.33
2022-12-25T08:29:54.425Z,100774.31
2022-12-25T08:32:25.593Z,100783.13
2022-12-25T08:34:56.301Z,100778.96
2022-12-25T08:37:27.095Z,100776.67
2022-12-25T08:39:57.998Z,100778.89
2022-12-25T08:42:29.966Z,100782.84
2022-12-25T08:45:03.105Z,100776.50
2022-12-25T08:47:35.572Z,100777.30
2022-12-25T08:50:12.215Z,100777.23
2022-12-25T08:52:43.150Z,100773.11
2022-12-25T08:55:13.985Z,100773.60
2022-12-25T08:57:44.920Z,100757.62
2022-12-25T09:00:17.905Z,100744.40
2022-12-25T09:02:47.180Z,100745.70
2022-12-25T09:05:18.029Z,100744.83
2022-12-25T09:07:48.733Z,100739.67
2022-12-25T09:10:19.492Z,100739.66
2022-12-25T09:12:50.441Z,100736.48
2022-12-25T09:15:21.630Z,100728.77
2022-12-25T09:17:52.471Z,100729.79
2022-12-25T09:20:23.191Z,100732.98
2022-12-25T09:22:53.944Z,100723.95
2022-12-25T09:25:24.605Z,100715.29
2022-12-25T09:27:56.283Z,100709.88
2022-12-25T09:30:27.120Z,100702.98
2022-12-25T09:32:57.902Z,100693.41
2022-12-25T09:35:28.699Z,100684.23
2022-12-25T09:37:59.456Z,100684.93
2022-12-25T09:40:33.451Z,100688.84
2022-12-25T09:43:05.019Z,100683.02
2022-12-25T09:45:40.062Z,100671.59
2022-12-25T09:48:16.020Z,100665.90
2022-12-25T09:50:50.331Z,100663.65
2022-12-25T09:53:26.162Z,100664.75
2022-12-25T09:56:08.150Z,100662.98
2022-12-25T09:58:38.892Z,100666.17
2022-12-25T10:01:17.654Z,100656.89
2022-12-25T10:04:12.843Z,100646.25
2022-12-25T10:06:51.752Z,100642.63
2022-12-25T10:09:42.697Z,100645.86
2022-12-25T10:12:33.782Z,100657.91
2022-12-25T10:15:27.237Z,100668.09
2022-12-25T10:18:22.544Z,100665.80
2022-12-25T10:20:55.279Z,100666.08
2022-12-25T10:23:27.273Z,100660.05
2022-12-25T10:25:58.150Z,100653.77
2022-12-25T10:28:35.405Z,100647.85
2022-12-25T10:31:19.526Z,100645.85
2022-12-25T10:33:51.961Z,100641.09
2022-12-25T10:36:24.565Z,100634.11
2022-12-25T10:38:56.258Z,100621.80
2022-12-25T10:41:50.765Z,100615.96
2022-12-25T10:44:25.327Z,100626.05
2022-12-25T10:46:58.198Z,100633.05
2022-12-25T10:49:34.474Z,100628.51
2022-12-25T10:52:05.832Z,100629.86
2022-12-25T10:54:37.875Z,100621.38
2022-12-25T10:57:17.411Z,100625.62
2022-12-25T10:59:49.616Z,100619.36
2022-12-25T11:02:25.778Z,100609.94
2022-12-25T11:05:03.661Z,100612.56
2022-12-25T11:07:54.417Z,100612.16
2022-12-25T11:10:25.272Z,100613.54
2022-12-25T11:12:56.388Z,100600.22
2022-12-25T11:15:37.965Z,100597.40
2022-12-25T11:18:22.073Z,100602.30
2022-12-25T11:20:54.338Z,100611.19
2022-12-25T11:23:27.326Z,100611.84
2022-12-25T11:26:03.061Z,100618.05
2022-12-25T11:28:36.957Z,100616.52
2022-12-25T11:31:10.573Z,100605.04
2022-12-25T11:33:47.178Z,100602.27
2022-12-25T11:36:26.441Z,100595.29
2022-12-25T11:38:58.193Z,100590.82
2022-12-25T11:41:34.756Z,100582.89
2022-12-25T11:44:08.947Z,100566.04
2022-12-25T11:46:43.995Z,100553.42
2022-12-25T11:49:19.795Z,100548.02
2022-12-25T11:51:55.176Z,100542.55
2022-12-25T11:54:31.532Z,100544.47
2022-12-25T11:57:05.706Z,100536.33
2022-12-25T11:59:51.196Z,100523.73
2022-12-25T12:02:29.862Z,100515.95
2022-12-25T12:05:03.716Z,100508.91
2022-12-25T12:07:37.200Z,100505.77
2022-12-25T12:10:15.972Z,100496.42
2022-12-25T12:12:57.688Z,100493.45
2022-12-25T12:15:36.951Z,100492.35
2022-12-25T12:18:23.343Z,100491.80
2022-12-25T12:21:10.849Z,100488.96
2022-12-25T12:23:52.248Z,100478.89
2022-12-25T12:26:25.185Z,100462.84
2022-12-25T12:28:59.072Z,100468.29
2022-12-25T12:31:41.195Z,100469.34
2022-12-25T12:34:25.819Z,100468.91
2022-12-25T12:37:01.777Z,100476.56
2022-12-25T12:39:37.621Z,100478.85
2022-12-25T12:42:18.413Z,100478.23
2022-12-25T12:44:50.731Z,100473.66
2022-12-25T12:47:38.596Z,100462.34
2022-12-25T12:50:24.612Z,100449.73
2022-12-25T12:52:55.411Z,100438.90
2022-12-25T12:55:33.851Z,100445.60
2022-12-25T12:58:07.170Z,100458.10
2022-12-25T13:00:50.904Z,100439.36
2022-12-25T13:03:46.258Z,100430.16
2022-12-25T13:06:22.021Z,100427.10
2022-12-25T13:09:06.261Z,100414.34
2022-12-25T13:11:41.790Z,100403.81
2022-12-25T13:14:19.632Z,100405.29
2022-12-25T13:16:52.850Z,100403.30
2022-12-25T13:19:25.876Z,100404.69
2022-12-25T13:21:58.913Z,100415.87
2022-12-25T13:24:30.933Z,100424.50
2022-12-25T13:27:02.111Z,100435.26
2022-12-25T13:29:34.558Z,100442.38
2022-12-25T13:32:07.718Z,100451.49
2022-12-25T13:34:40.437Z,100449.94
2022-12-25T13:37:15.274Z,100450.43
2022-12-25T13:39:52.603Z,100455.11
2022-12-25T13:42:26.653Z,100455.91
2022-12-25T13:44:59.743Z,100456.73
2022-12-25T13:47:35.123Z,100455.89
2022-12-25T13:50:21.814Z,100449.81
2022-12-25T13:52:53.670Z,100444.56
2022-12-25T13:55:25.818Z,100441.73
2022-12-25T13:58:00.242Z,100434.22
2022-12-25T14:00:38.296Z,100431.83
2022-12-25T14:03:18.131Z,100433.73
2022-12-25T14:05:58.962Z,100433.45
2022-12-25T14:08:32.105Z,100431.66
2022-12-25T14:11:05.259Z,100438.33
2022-12-25T14:13:39.768Z,100450.01
2022-12-25T14:16:11.975Z,100444.17
2022-12-25T14:18:53.846Z,100431.99
2022-12-25T14:21:34.136Z,100422.39
2022-12-25T14:24:05.768Z,100418.81
2022-12-25T14:26:36.917Z,100420.27
2022-12-25T14:29:18.121Z,100416.74
2022-12-25T14:31:50.068Z,100412.36
2022-12-25T14:34:24.341Z,100405.00
2022-12-25T14:36:56.290Z,100400.39
2022-12-25T14:39:33.338Z,100404.44
2022-12-25T14:42:12.601Z,100400.92
2022-12-25T14:44:43.696Z,100397.18
2022-12-25T14:47:20.323Z,100393.30
2022-12-25T14:49:51.054Z,100385.60
2022-12-25T14:52:26.473Z,100377.71
2022-12-25T14:55:01.162Z,100377.92
2022-12-25T14:57:34.964Z,100374.27
2022-12-25T15:00:21.271Z,100365.88
2022-12-25T15:02:54.769Z,100358.20
2022-12-25T15:05:35.282Z,100360.95
2022-12-25T15:08:20.372Z,100361.92
2022-12-25T15:11:01.834Z,100366.14
2022-12-25T15:13:34.430Z,100368.45
2022-12-25T15:16:13.148Z,100367.69
2022-12-25T15:18:46.956Z,100357.11
2022-12-25T15:21:23.248Z,100342.00
2022-12-25T15:23:55.340Z,100330.83
2022-12-25T15:26:26.956Z,100332.05
2022-12-25T15:28:57.799Z,100329.77
2022-12-25T15:31:30.207Z,100328.81
2022-12-25T15:34:02.591Z,100326.23
2022-12-25T15:36:33.952Z,100323.20
2022-12-25T15:39:04.874Z,100322.11
2022-12-25T15:41:56.787Z,100329.29
2022-12-25T15:44:27.699Z,100324.21
2022-12-25T15:46:58.647Z,100318.48
2022-12-25T15:49:29.281Z,100313.27
2022-12-25T15:51:59.992Z,100310.36
2022-12-25T15:54:30.707Z,100308.06
2022-12-25T15:57:04.312Z,100315.70
2022-12-25T15:59:35.404Z,100315.86
2022-12-25T16:02:14.424Z,100315.06
2022-12-25T16:04:45.302Z,100322.44
2022-12-25T16:07:18.962Z,100320.20
2022-12-25T16:09:49.724Z,100320.43
2022-12-25T16:12:20.974Z,100316.77
2022-12-25T16:14:51.652Z,100308.02
2022-12-25T16:17:22.470Z,100291.65
2022-12-25T16:19:53.137Z,100286.35
2022-12-25T16:22:26.576Z,100284.30
2022-12-25T16:24:57.563Z,100278.08
2022-12-25T16:27:28.252Z,100281.67
2022-12-25T16:29:58.986Z,100289.70
2022-12-25T16:32:30.344Z,100284.58
2022-12-25T16:35:01.159Z,100281.23
2022-12-25T16:37:32.112Z,100284.21
2022-12-25T16:40:03.208Z,100283.90
2022-12-25T16:42:34.721Z,100296.57
2022-12-25T16:45:06.047Z,100304.23
2022-12-25T16:47:36.869Z,100309.11
2022-12-25T16:50:09.650Z,100320.89
2022-12-25T16:52:38.654Z,100321.90
2022-12-25T16:55:10.549Z,100310.39
2022-12-25T16:57:41.306Z,100293.23
2022-12-25T17:00:14.375Z,100274.29
2022-12-25T17:02:45.436Z,100269.28
2022-12-25T17:05:16.535Z,100272.19
2022-12-25T17:07:47.322Z,100267.15
2022-12-25T17:10:18.381Z,100257.71
2022-12-25T17:12:49.141Z,100242.34
2022-12-25T17:15:20.129Z,100236.57
2022-12-25T17:17:50.896Z,100224.37
2022-12-25T17:20:21.727Z,100216.31
2022-12-25T17:22:52.760Z,100213.88
2022-12-25T17:25:23.405Z,100210.15
2022-12-25T17:27:54.118Z,100202.58
2022-12-25T17:30:24.841Z,100192.21
2022-12-25T17:32:55.945Z,100185.77
2022-12-25T17:35:26.605Z,100179.23
2022-12-25T17:37:57.270Z,100177.71
2022-12-25T17:40:29.345Z,100170.14
2022-12-25T17:43:00.145Z,100169.11
2022-12-25T17:45:30.846Z,100158.73
2022-12-25T17:48:01.477Z,100155.73
2022-12-25T17:50:37.392Z,100153.93
2022-12-25T17:53:11.961Z,100145.59
2022-12-25T17:55:43.929Z,100139.04
2022-12-25T17:58:14.519Z,100136.09
2022-12-25T18:00:45.242Z,100142.76
2022-12-25T18:03:16.030Z,100144.61
2022-12-25T18:05:46.991Z,100147.25
2022-12-25T18:08:20.423Z,100146.81
2022-12-25T18:10:52.173Z,100138.83
2022-12-25T18:13:22.864Z,100142.33
2022-12-25T18:15:53.524Z,100143.70
2022-12-25T18:18:25.186Z,100139.77
2022-12-25T18:20:56.762Z,100136.20
2022-12-25T18:23:27.794Z,100129.61
2022-12-25T18:26:01.563Z,100133.18
2022-12-25T18:28:32.307Z,100129.30
2022-12-25T18:31:03.274Z,100119.62
2022-12-25T18:33:33.898Z,100121.83
2022-12-25T18:36:05.096Z,100114.44
2022-12-25T18:38:35.834Z,100113.40
2022-12-25T18:41:09.383Z,100113.25
2022-12-25T18:43:52.186Z,100110.98
2022-12-25T18:46:26.585Z,100110.12
2022-12-25T18:48:58.310Z,100105.46
2022-12-25T18:51:34.970Z,100110.14
2022-12-25T18:54:07.974Z,100109.14
2022-12-25T18:56:38.666Z,100112.11
2022-12-25T18:59:09.199Z,100129.35
2022-12-25T19:01:39.908Z,100124.77
2022-12-25T19:04:12.759Z,100115.14
2022-12-25T19:06:43.462Z,100115.06
2022-12-25T19:09:14.140Z,100121.77
2022-12-25T19:11:46.716Z,100130.98
2022-12-25T19:14:17.920Z,100132.60
2022-12-25T19:16:48.676Z,100125.48
2022-12-25T19:19:19.545Z,100124.48
2022-12-25T19:21:53.959Z,100111.67
2022-12-25T19:24:25.581Z,100106.64
2022-12-25T19:26:56.181Z,100106.36
2022-12-25T19:29:26.812Z,100095.27
2022-12-25T19:31:57.986Z,100097.09
2022-12-25T19:34:28.832Z,100093.96
2022-12-25T19:36:59.492Z,100097.06
2022-12-25T19:39:30.295Z,100093.61
2022-12-25T19:42:01.042Z,100097.80
2022-12-25T19:44:31.625Z,100101.77
2022-12-25T19:47:02.679Z,100106.27
2022-12-25T19:49:33.502Z,100103.64
2022-12-25T19:52:04.424Z,100101.91
2022-12-25T19:54:35.193Z,100104.11
2022-12-25T19:57:05.997Z,100097.32
2022-12-25T19:59:36.775Z,100097.11
2022-12-25T20:02:11.024Z,100092.80
2022-12-25T20:04:44.284Z,100089.20
2022-12-25T20:07:15.177Z,100084.77
2022-12-25T20:09:46.075Z,100083.55
2022-12-25T20:12:16.709Z,100085.00
2022-12-25T20:14:48.134Z,100078.45
2022-12-25T20:17:19.079Z,100069.29
2022-12-25T20:19:49.954Z,100072.33
2022-12-25T20:22:20.639Z,100072.45
2022-12-25T20:24:51.273Z,100067.92
2022-12-25T20:27:21.880Z,100066.80
2022-12-25T20:29:52.499Z,100066.91
2022-12-25T20:32:23.365Z,100067.92
2022-12-25T20:34:54.158Z,100064.77
2022-12-25T20:37:25.066Z,100068.00
2022-12-25T20:39:55.779Z,100071.74
2022-12-25T20:42:26.662Z,100068.19
2022-12-25T20:44:57.334Z,100060.97
2022-12-25T20:47:28.003Z,100061.20
2022-12-25T20:49:58.935Z,100057.95
2022-12-25T20:52:30.122Z,100058.08
2022-12-25T20:55:00.855Z,100057.70
2022-12-25T20:57:31.684Z,100060.30
2022-12-25T21:00:02.272Z,100055.80
2022-12-25T21:02:36.412Z,100051.95
2022-12-25T21:05:12.417Z,100050.91
2022-12-25T21:07:43.066Z,100045.39
2022-12-25T21:10:13.816Z,100045.58
2022-12-25T21:12:44.455Z,100047.56
2022-12-25T21:15:16.171Z,100048.50
2022-12-25T21:17:46.867Z,100046.56
2022-12-25T21:20:17.897Z,100041.02
2022-12-25T21:22:48.608Z,100039.91
2022-12-25T21:25:19.321Z,100045.73
2022-12-25T21:27:49.905Z,100045.80
2022-12-25T21:30:20.548Z,100045.00
2022-12-25T21:33:08.768Z,100039.05
2022-12-25T21:35:40.478Z,100048.39
2022-12-25T21:38:11.372Z,100050.04
2022-12-25T21:40:42.318Z,100048.88
2022-12-25T21:43:15.133Z,100034.96
2022-12-25T21:45:45.931Z,100039.35
2022-12-25T21:48:16.543Z,100030.40
2022-12-25T21:51:04.614Z,100028.48
2022-12-25T21:53:35.536Z,100031.33
2022-12-25T21:56:06.530Z,100038.96
2022-12-25T21:58:37.434Z,100047.58
2022-12-25T22:01:08.117Z,100051.14
2022-12-25T22:03:39.250Z,100049.48
2022-12-25T22:06:27.765Z,100052.17
2022-12-25T22:08:58.471Z,100048.21
2022-12-25T22:11:43.623Z,100045.02
2022-12-25T22:14:52.778Z,100040.73
2022-12-25T22:17:44.674Z,100047.46
2022-12-25T22:20:17.772Z,100059.61
2022-12-25T22:22:48.620Z,100050.10
2022-12-25T22:25:20.457Z,100043.52
2022-12-25T22:27:51.656Z,100045.21
2022-12-25T22:30:25.388Z,100040.38
2022-12-25T22:32:56.409Z,100035.48
2022-12-25T22:35:27.616Z,100032.20
2022-12-25T22:37:58.816Z,100025.99
2022-12-25T22:40:29.602Z,100025.06
2022-12-25T22:43:00.285Z,100031.33
2022-12-25T22:45:30.986Z,100033.86
2022-12-25T22:48:01.601Z,100040.84
2022-12-25T22:50:32.425Z,100038.42
2022-12-25T22:53:03.193Z,100043.35
2022-12-25T22:55:33.995Z,100042.64
2022-12-25T22:58:04.614Z,100043.30
2022-12-25T23:00:39.765Z,100034.38
2022-12-25T23:03:15.226Z,100039.55
2022-12-25T23:05:46.255Z,100048.88
2022-12-25T23:08:17.390Z,100043.73
2022-12-25T23:10:48.328Z,100043.91
2022-12-25T23:13:37.460Z,100038.80
2022-12-25T23:16:13.743Z,100028.91
2022-12-25T23:19:02.420Z,100020.95
2022-12-25T23:21:51.034Z,100016.30
2022-12-25T23:24:39.352Z,100020.94
2022-12-25T23:27:10.037Z,100026.92
2022-12-25T23:29:40.822Z,100042.13
2022-12-25T23:32:15.347Z,100051.18
2022-12-25T23:34:47.164Z,100053.39
2022-12-25T23:37:17.785Z,100045.76
2022-12-25T23:39:50.036Z,100039.79
2022-12-25T23:42:20.878Z,100032.83
2022-12-25T23:44:51.546Z,100029.65
2022-12-25T23:47:22.414Z,100040.19
2022-12-25T23:49:53.051Z,100047.88
2022-12-25T23:52:24.454Z,100049.31
2022-12-25T23:54:55.280Z,100053.44
2022-12-25T23:57:25.854Z,100045.32
2022-12-25T23:59:58.099Z,100025.40
